sensor_id;sensor_type;location;lat;lon;timestamp;temperature;humidity
33955;DHT22;20233;50.804;7.126;2023-07-31T00:00:03;18.70;99.90
33955;DHT22;20233;50.804;7.126;2023-07-31T00:02:29;18.70;99.90
33955;DHT22;20233;50.804;7.126;2023-07-31T00:04:54;18.70;99.90
33955;DHT22;20233;50.804;7.126;2023-07-31T00:07:20;18.80;99.90
33955;DHT22;20233;50.804;7.126;2023-07-31T00:09:45;18.80;99.90
33955;DHT22;20233;50.804;7.126;2023-07-31T00:12:11;18.70;99.90
33955;DHT22;20233;50.804;7.126;2023-07-31T00:14:36;18.80;99.90
33955;DHT22;20233;50.804;7.126;2023-07-31T00:17:02;18.80;99.90
33955;DHT22;20233;50.804;7.126;2023-07-31T00:19:27;18.80;99.90
33955;DHT22;20233;50.804;7.126;2023-07-31T00:21:53;18.80;99.90
33955;DHT22;20233;50.804;7.126;2023-07-31T00:24:18;18.80;99.90
33955;DHT22;20233;50.804;7.126;2023-07-31T00:26:44;18.90;99.90
33955;DHT22;20233;50.804;7.126;2023-07-31T00:29:10;18.90;99.90
33955;DHT22;20233;50.804;7.126;2023-07-31T00:31:35;18.90;99.90
33955;DHT22;20233;50.804;7.126;2023-07-31T00:34:00;18.90;99.90
33955;DHT22;20233;50.804;7.126;2023-07-31T00:36:26;18.80;99.90
33955;DHT22;20233;50.804;7.126;2023-07-31T00:38:51;18.90;99.90
33955;DHT22;20233;50.804;7.126;2023-07-31T00:41:17;18.90;99.90
33955;DHT22;20233;50.804;7.126;2023-07-31T00:43:43;18.90;99.90
33955;DHT22;20233;50.804;7.126;2023-07-31T00:46:08;18.90;99.90
33955;DHT22;20233;50.804;7.126;2023-07-31T00:48:35;18.90;99.90
33955;DHT22;20233;50.804;7.126;2023-07-31T00:51:01;18.90;99.90
33955;DHT22;20233;50.804;7.126;2023-07-31T00:53:27;18.90;99.90
33955;DHT22;20233;50.804;7.126;2023-07-31T00:55:53;18.90;99.90
33955;DHT22;20233;50.804;7.126;2023-07-31T00:58:19;18.90;99.90
33955;DHT22;20233;50.804;7.126;2023-07-31T01:00:45;18.90;99.90
33955;DHT22;20233;50.804;7.126;2023-07-31T01:03:11;18.80;99.90
33955;DHT22;20233;50.804;7.126;2023-07-31T01:08:42;19.00;99.90
33955;DHT22;20233;50.804;7.126;2023-07-31T01:11:16;18.80;99.90
33955;DHT22;20233;50.804;7.126;2023-07-31T01:13:44;18.80;99.90
33955;DHT22;20233;50.804;7.126;2023-07-31T01:16:11;18.90;99.90
33955;DHT22;20233;50.804;7.126;2023-07-31T01:18:36;18.90;99.90
33955;DHT22;20233;50.804;7.126;2023-07-31T01:24:35;18.90;99.90
33955;DHT22;20233;50.804;7.126;2023-07-31T01:27:18;19.00;99.90
33955;DHT22;20233;50.804;7.126;2023-07-31T01:29:58;19.00;99.90
33955;DHT22;20233;50.804;7.126;2023-07-31T01:32:28;18.90;99.90
33955;DHT22;20233;50.804;7.126;2023-07-31T01:34:54;18.90;99.90
33955;DHT22;20233;50.804;7.126;2023-07-31T01:37:20;18.90;99.90
33955;DHT22;20233;50.804;7.126;2023-07-31T01:39:45;18.90;99.90
33955;DHT22;20233;50.804;7.126;2023-07-31T01:42:12;18.90;99.90
33955;DHT22;20233;50.804;7.126;2023-07-31T01:44:39;18.90;99.90
33955;DHT22;20233;50.804;7.126;2023-07-31T01:47:05;18.90;99.90
33955;DHT22;20233;50.804;7.126;2023-07-31T01:49:31;18.90;99.90
33955;DHT22;20233;50.804;7.126;2023-07-31T01:51:56;18.80;99.90
33955;DHT22;20233;50.804;7.126;2023-07-31T01:54:22;18.90;99.90
33955;DHT22;20233;50.804;7.126;2023-07-31T01:56:47;18.80;99.90
33955;DHT22;20233;50.804;7.126;2023-07-31T01:59:14;18.80;99.90
33955;DHT22;20233;50.804;7.126;2023-07-31T02:01:40;18.80;99.90
33955;DHT22;20233;50.804;7.126;2023-07-31T02:04:05;18.80;99.90
33955;DHT22;20233;50.804;7.126;2023-07-31T02:06:31;18.80;99.90
33955;DHT22;20233;50.804;7.126;2023-07-31T02:08:56;18.80;99.90
33955;DHT22;20233;50.804;7.126;2023-07-31T02:11:22;18.80;99.90
33955;DHT22;20233;50.804;7.126;2023-07-31T02:13:47;18.80;99.90
33955;DHT22;20233;50.804;7.126;2023-07-31T02:16:13;18.80;99.90
33955;DHT22;20233;50.804;7.126;2023-07-31T02:18:38;18.70;99.90
33955;DHT22;20233;50.804;7.126;2023-07-31T02:21:04;18.80;99.90
33955;DHT22;20233;50.804;7.126;2023-07-31T02:23:30;18.80;99.90
33955;DHT22;20233;50.804;7.126;2023-07-31T02:25:55;18.70;99.90
33955;DHT22;20233;50.804;7.126;2023-07-31T02:28:21;18.70;99.90
33955;DHT22;20233;50.804;7.126;2023-07-31T02:30:46;18.70;99.90
33955;DHT22;20233;50.804;7.126;2023-07-31T02:33:12;18.70;99.90
33955;DHT22;20233;50.804;7.126;2023-07-31T02:35:37;18.80;99.90
33955;DHT22;20233;50.804;7.126;2023-07-31T02:38:03;18.70;99.90
33955;DHT22;20233;50.804;7.126;2023-07-31T02:40:28;18.80;99.90
33955;DHT22;20233;50.804;7.126;2023-07-31T02:42:54;18.80;99.90
33955;DHT22;20233;50.804;7.126;2023-07-31T02:45:20;18.80;99.90
33955;DHT22;20233;50.804;7.126;2023-07-31T02:47:45;18.90;99.90
33955;DHT22;20233;50.804;7.126;2023-07-31T02:50:11;18.80;99.90
33955;DHT22;20233;50.804;7.126;2023-07-31T02:52:36;18.80;99.90
33955;DHT22;20233;50.804;7.126;2023-07-31T02:55:02;18.80;99.90
33955;DHT22;20233;50.804;7.126;2023-07-31T02:57:27;18.90;99.90
33955;DHT22;20233;50.804;7.126;2023-07-31T02:59:53;18.80;99.90
33955;DHT22;20233;50.804;7.126;2023-07-31T03:02:18;18.80;99.90
33955;DHT22;20233;50.804;7.126;2023-07-31T03:04:44;18.90;99.90
33955;DHT22;20233;50.804;7.126;2023-07-31T03:07:10;18.80;99.90
33955;DHT22;20233;50.804;7.126;2023-07-31T03:09:35;18.90;99.90
33955;DHT22;20233;50.804;7.126;2023-07-31T03:12:01;18.90;99.90
33955;DHT22;20233;50.804;7.126;2023-07-31T03:14:26;18.90;99.90
33955;DHT22;20233;50.804;7.126;2023-07-31T03:16:52;18.90;99.90
33955;DHT22;20233;50.804;7.126;2023-07-31T03:19:17;18.90;99.90
33955;DHT22;20233;50.804;7.126;2023-07-31T03:21:43;18.90;99.90
33955;DHT22;20233;50.804;7.126;2023-07-31T03:24:08;18.90;99.90
33955;DHT22;20233;50.804;7.126;2023-07-31T03:26:34;18.90;99.90
33955;DHT22;20233;50.804;7.126;2023-07-31T03:29:00;18.90;99.90
33955;DHT22;20233;50.804;7.126;2023-07-31T03:31:26;18.90;99.90
33955;DHT22;20233;50.804;7.126;2023-07-31T03:33:51;18.90;99.90
33955;DHT22;20233;50.804;7.126;2023-07-31T03:36:17;18.90;99.90
33955;DHT22;20233;50.804;7.126;2023-07-31T03:38:42;18.80;99.90
33955;DHT22;20233;50.804;7.126;2023-07-31T03:41:08;18.90;99.90
33955;DHT22;20233;50.804;7.126;2023-07-31T03:43:33;18.90;99.90
33955;DHT22;20233;50.804;7.126;2023-07-31T03:46:00;18.90;99.90
33955;DHT22;20233;50.804;7.126;2023-07-31T03:48:26;18.90;99.90
33955;DHT22;20233;50.804;7.126;2023-07-31T03:50:52;18.90;99.90
33955;DHT22;20233;50.804;7.126;2023-07-31T03:53:18;19.00;99.90
33955;DHT22;20233;50.804;7.126;2023-07-31T03:55:43;19.00;99.90
33955;DHT22;20233;50.804;7.126;2023-07-31T03:58:09;19.00;99.90
33955;DHT22;20233;50.804;7.126;2023-07-31T04:00:34;19.00;99.90
33955;DHT22;20233;50.804;7.126;2023-07-31T04:03:00;18.90;99.90
33955;DHT22;20233;50.804;7.126;2023-07-31T04:05:25;19.00;99.90
33955;DHT22;20233;50.804;7.126;2023-07-31T04:07:51;19.00;99.90
33955;DHT22;20233;50.804;7.126;2023-07-31T04:10:17;18.90;99.90
33955;DHT22;20233;50.804;7.126;2023-07-31T04:12:42;19.00;99.90
33955;DHT22;20233;50.804;7.126;2023-07-31T04:15:08;19.00;99.90
33955;DHT22;20233;50.804;7.126;2023-07-31T04:17:34;19.00;99.90
33955;DHT22;20233;50.804;7.126;2023-07-31T04:19:59;19.00;99.90
33955;DHT22;20233;50.804;7.126;2023-07-31T04:22:25;18.90;99.90
33955;DHT22;20233;50.804;7.126;2023-07-31T04:24:50;19.00;99.90
33955;DHT22;20233;50.804;7.126;2023-07-31T04:27:16;19.00;99.90
33955;DHT22;20233;50.804;7.126;2023-07-31T04:29:41;19.00;99.90
33955;DHT22;20233;50.804;7.126;2023-07-31T04:32:08;18.90;99.90
33955;DHT22;20233;50.804;7.126;2023-07-31T04:34:33;19.00;99.90
33955;DHT22;20233;50.804;7.126;2023-07-31T04:36:59;19.00;99.90
33955;DHT22;20233;50.804;7.126;2023-07-31T04:39:24;19.00;99.90
33955;DHT22;20233;50.804;7.126;2023-07-31T04:41:50;19.00;99.90
33955;DHT22;20233;50.804;7.126;2023-07-31T04:44:15;19.00;99.90
33955;DHT22;20233;50.804;7.126;2023-07-31T04:46:41;19.00;99.90
33955;DHT22;20233;50.804;7.126;2023-07-31T04:49:06;19.00;99.90
33955;DHT22;20233;50.804;7.126;2023-07-31T04:51:33;19.00;99.90
33955;DHT22;20233;50.804;7.126;2023-07-31T04:53:58;19.00;99.90
33955;DHT22;20233;50.804;7.126;2023-07-31T04:56:24;19.10;99.90
33955;DHT22;20233;50.804;7.126;2023-07-31T04:58:49;19.00;99.90
33955;DHT22;20233;50.804;7.126;2023-07-31T05:01:15;19.10;99.90
33955;DHT22;20233;50.804;7.126;2023-07-31T05:03:40;19.10;99.90
33955;DHT22;20233;50.804;7.126;2023-07-31T05:06:07;19.10;99.90
33955;DHT22;20233;50.804;7.126;2023-07-31T05:08:35;19.10;99.90
33955;DHT22;20233;50.804;7.126;2023-07-31T05:11:02;19.10;99.90
33955;DHT22;20233;50.804;7.126;2023-07-31T05:13:29;19.20;99.90
33955;DHT22;20233;50.804;7.126;2023-07-31T05:15:56;19.10;99.90
33955;DHT22;20233;50.804;7.126;2023-07-31T05:18:22;19.20;99.90
33955;DHT22;20233;50.804;7.126;2023-07-31T05:20:49;19.20;99.90
33955;DHT22;20233;50.804;7.126;2023-07-31T05:23:15;19.20;99.90
33955;DHT22;20233;50.804;7.126;2023-07-31T05:25:41;19.20;99.90
33955;DHT22;20233;50.804;7.126;2023-07-31T05:28:08;19.30;99.90
33955;DHT22;20233;50.804;7.126;2023-07-31T05:30:34;19.30;99.90
33955;DHT22;20233;50.804;7.126;2023-07-31T05:35:28;19.40;99.90
33955;DHT22;20233;50.804;7.126;2023-07-31T05:37:56;19.50;99.90
33955;DHT22;20233;50.804;7.126;2023-07-31T05:40:23;19.50;99.90
33955;DHT22;20233;50.804;7.126;2023-07-31T05:42:50;19.50;99.90
33955;DHT22;20233;50.804;7.126;2023-07-31T05:45:17;19.50;99.90
33955;DHT22;20233;50.804;7.126;2023-07-31T05:47:43;19.50;99.90
33955;DHT22;20233;50.804;7.126;2023-07-31T05:50:09;19.50;99.90
33955;DHT22;20233;50.804;7.126;2023-07-31T05:52:36;19.60;99.90
33955;DHT22;20233;50.804;7.126;2023-07-31T05:55:03;19.60;99.90
33955;DHT22;20233;50.804;7.126;2023-07-31T05:57:30;19.60;99.90
33955;DHT22;20233;50.804;7.126;2023-07-31T05:59:57;19.50;99.90
33955;DHT22;20233;50.804;7.126;2023-07-31T06:02:24;19.60;99.90
33955;DHT22;20233;50.804;7.126;2023-07-31T06:04:50;19.60;99.90
33955;DHT22;20233;50.804;7.126;2023-07-31T06:07:17;19.70;99.90
33955;DHT22;20233;50.804;7.126;2023-07-31T06:09:43;19.60;99.90
33955;DHT22;20233;50.804;7.126;2023-07-31T06:12:09;19.60;99.90
33955;DHT22;20233;50.804;7.126;2023-07-31T06:14:35;19.70;99.90
33955;DHT22;20233;50.804;7.126;2023-07-31T06:17:01;19.70;99.90
33955;DHT22;20233;50.804;7.126;2023-07-31T06:19:28;19.70;99.90
33955;DHT22;20233;50.804;7.126;2023-07-31T06:21:54;19.60;99.90
33955;DHT22;20233;50.804;7.126;2023-07-31T06:24:21;19.70;99.90
33955;DHT22;20233;50.804;7.126;2023-07-31T06:26:47;19.70;99.90
33955;DHT22;20233;50.804;7.126;2023-07-31T06:29:13;19.70;99.90
33955;DHT22;20233;50.804;7.126;2023-07-31T06:31:41;19.60;99.90
33955;DHT22;20233;50.804;7.126;2023-07-31T06:34:12;19.50;99.90
33955;DHT22;20233;50.804;7.126;2023-07-31T06:36:38;19.50;99.90
33955;DHT22;20233;50.804;7.126;2023-07-31T06:39:04;19.50;99.90
33955;DHT22;20233;50.804;7.126;2023-07-31T06:41:31;19.40;99.90
33955;DHT22;20233;50.804;7.126;2023-07-31T06:43:57;19.40;99.90
33955;DHT22;20233;50.804;7.126;2023-07-31T06:46:23;19.40;99.90
33955;DHT22;20233;50.804;7.126;2023-07-31T06:48:50;19.40;99.90
33955;DHT22;20233;50.804;7.126;2023-07-31T06:51:16;19.30;99.90
33955;DHT22;20233;50.804;7.126;2023-07-31T06:53:42;19.30;99.90
33955;DHT22;20233;50.804;7.126;2023-07-31T06:56:10;19.20;99.90
33955;DHT22;20233;50.804;7.126;2023-07-31T06:58:37;19.20;99.90
33955;DHT22;20233;50.804;7.126;2023-07-31T07:01:03;19.20;99.90
33955;DHT22;20233;50.804;7.126;2023-07-31T07:03:29;19.30;99.90
33955;DHT22;20233;50.804;7.126;2023-07-31T07:05:55;19.30;99.90
33955;DHT22;20233;50.804;7.126;2023-07-31T07:08:21;19.30;99.90
33955;DHT22;20233;50.804;7.126;2023-07-31T07:10:48;19.50;99.90
33955;DHT22;20233;50.804;7.126;2023-07-31T07:13:14;19.50;99.90
33955;DHT22;20233;50.804;7.126;2023-07-31T07:15:40;19.70;99.90
33955;DHT22;20233;50.804;7.126;2023-07-31T07:18:07;19.80;99.90
33955;DHT22;20233;50.804;7.126;2023-07-31T07:20:36;19.80;99.90
33955;DHT22;20233;50.804;7.126;2023-07-31T07:23:02;20.00;99.90
33955;DHT22;20233;50.804;7.126;2023-07-31T07:25:29;20.10;99.90
33955;DHT22;20233;50.804;7.126;2023-07-31T07:27:56;20.10;99.90
33955;DHT22;20233;50.804;7.126;2023-07-31T07:30:22;20.20;99.90
33955;DHT22;20233;50.804;7.126;2023-07-31T07:32:50;20.30;99.90
33955;DHT22;20233;50.804;7.126;2023-07-31T07:35:16;20.30;99.90
33955;DHT22;20233;50.804;7.126;2023-07-31T07:37:42;20.20;99.90
33955;DHT22;20233;50.804;7.126;2023-07-31T07:40:09;20.20;99.90
33955;DHT22;20233;50.804;7.126;2023-07-31T07:42:36;20.20;99.90
33955;DHT22;20233;50.804;7.126;2023-07-31T07:45:02;20.20;99.90
33955;DHT22;20233;50.804;7.126;2023-07-31T07:47:29;20.10;99.90
33955;DHT22;20233;50.804;7.126;2023-07-31T07:49:55;20.10;99.90
33955;DHT22;20233;50.804;7.126;2023-07-31T07:52:21;20.00;99.90
33955;DHT22;20233;50.804;7.126;2023-07-31T07:54:47;20.00;99.90
33955;DHT22;20233;50.804;7.126;2023-07-31T07:57:14;19.90;99.90
33955;DHT22;20233;50.804;7.126;2023-07-31T07:59:41;19.80;99.90
33955;DHT22;20233;50.804;7.126;2023-07-31T08:02:08;19.80;99.90
33955;DHT22;20233;50.804;7.126;2023-07-31T08:04:34;19.80;99.90
33955;DHT22;20233;50.804;7.126;2023-07-31T08:07:01;19.70;99.90
33955;DHT22;20233;50.804;7.126;2023-07-31T08:09:27;19.60;99.90
33955;DHT22;20233;50.804;7.126;2023-07-31T08:11:53;19.60;99.90
33955;DHT22;20233;50.804;7.126;2023-07-31T08:14:20;19.70;99.90
33955;DHT22;20233;50.804;7.126;2023-07-31T08:16:45;19.70;99.90
33955;DHT22;20233;50.804;7.126;2023-07-31T08:19:11;19.70;99.90
33955;DHT22;20233;50.804;7.126;2023-07-31T08:21:37;19.70;99.90
33955;DHT22;20233;50.804;7.126;2023-07-31T08:24:04;19.70;99.90
33955;DHT22;20233;50.804;7.126;2023-07-31T08:26:30;19.70;99.90
33955;DHT22;20233;50.804;7.126;2023-07-31T08:28:57;19.70;99.90
33955;DHT22;20233;50.804;7.126;2023-07-31T08:31:23;19.70;99.90
33955;DHT22;20233;50.804;7.126;2023-07-31T08:33:50;19.80;99.90
33955;DHT22;20233;50.804;7.126;2023-07-31T08:36:16;19.80;99.90
33955;DHT22;20233;50.804;7.126;2023-07-31T08:38:42;19.80;99.90
33955;DHT22;20233;50.804;7.126;2023-07-31T08:41:09;19.70;99.90
33955;DHT22;20233;50.804;7.126;2023-07-31T08:43:36;19.80;99.90
33955;DHT22;20233;50.804;7.126;2023-07-31T08:46:03;19.70;99.90
33955;DHT22;20233;50.804;7.126;2023-07-31T08:48:32;19.70;99.90
33955;DHT22;20233;50.804;7.126;2023-07-31T08:51:01;19.80;99.90
33955;DHT22;20233;50.804;7.126;2023-07-31T08:53:27;19.70;99.90
33955;DHT22;20233;50.804;7.126;2023-07-31T08:55:53;19.70;99.90
33955;DHT22;20233;50.804;7.126;2023-07-31T08:58:22;19.70;99.90
33955;DHT22;20233;50.804;7.126;2023-07-31T09:00:51;19.70;99.90
33955;DHT22;20233;50.804;7.126;2023-07-31T09:03:18;19.80;99.90
33955;DHT22;20233;50.804;7.126;2023-07-31T09:05:46;19.80;99.90
33955;DHT22;20233;50.804;7.126;2023-07-31T09:08:14;19.70;99.90
33955;DHT22;20233;50.804;7.126;2023-07-31T09:10:45;19.70;99.90
33955;DHT22;20233;50.804;7.126;2023-07-31T09:13:13;19.70;99.90
33955;DHT22;20233;50.804;7.126;2023-07-31T09:15:40;19.70;99.90
33955;DHT22;20233;50.804;7.126;2023-07-31T09:18:08;19.80;99.90
33955;DHT22;20233;50.804;7.126;2023-07-31T09:20:35;19.80;99.90
33955;DHT22;20233;50.804;7.126;2023-07-31T09:23:10;19.70;99.90
33955;DHT22;20233;50.804;7.126;2023-07-31T09:25:37;19.80;99.90
33955;DHT22;20233;50.804;7.126;2023-07-31T09:28:07;19.80;99.90
33955;DHT22;20233;50.804;7.126;2023-07-31T09:30:49;19.80;99.90
33955;DHT22;20233;50.804;7.126;2023-07-31T09:33:17;19.70;99.90
33955;DHT22;20233;50.804;7.126;2023-07-31T09:35:43;19.70;99.90
33955;DHT22;20233;50.804;7.126;2023-07-31T09:38:11;19.70;99.90
33955;DHT22;20233;50.804;7.126;2023-07-31T09:40:48;19.70;99.90
33955;DHT22;20233;50.804;7.126;2023-07-31T09:43:19;19.70;99.90
33955;DHT22;20233;50.804;7.126;2023-07-31T09:45:46;19.80;99.90
33955;DHT22;20233;50.804;7.126;2023-07-31T09:48:14;19.70;99.90
33955;DHT22;20233;50.804;7.126;2023-07-31T09:50:46;19.70;99.90
33955;DHT22;20233;50.804;7.126;2023-07-31T09:53:13;19.80;99.90
33955;DHT22;20233;50.804;7.126;2023-07-31T09:55:40;19.80;99.90
33955;DHT22;20233;50.804;7.126;2023-07-31T09:58:09;19.80;99.90
33955;DHT22;20233;50.804;7.126;2023-07-31T10:00:36;19.70;99.90
33955;DHT22;20233;50.804;7.126;2023-07-31T10:03:09;19.80;99.90
33955;DHT22;20233;50.804;7.126;2023-07-31T10:05:36;19.80;99.90
33955;DHT22;20233;50.804;7.126;2023-07-31T10:08:07;19.90;99.90
33955;DHT22;20233;50.804;7.126;2023-07-31T10:10:36;19.90;99.90
33955;DHT22;20233;50.804;7.126;2023-07-31T10:13:04;19.90;99.90
33955;DHT22;20233;50.804;7.126;2023-07-31T10:15:32;19.90;99.90
33955;DHT22;20233;50.804;7.126;2023-07-31T10:17:58;20.00;99.90
33955;DHT22;20233;50.804;7.126;2023-07-31T10:20:26;20.10;99.90
33955;DHT22;20233;50.804;7.126;2023-07-31T10:22:55;20.10;99.90
33955;DHT22;20233;50.804;7.126;2023-07-31T10:25:26;20.20;99.90
33955;DHT22;20233;50.804;7.126;2023-07-31T10:27:54;20.20;99.90
33955;DHT22;20233;50.804;7.126;2023-07-31T10:30:29;20.30;99.90
33955;DHT22;20233;50.804;7.126;2023-07-31T10:32:56;20.30;99.90
33955;DHT22;20233;50.804;7.126;2023-07-31T10:35:23;20.30;99.90
33955;DHT22;20233;50.804;7.126;2023-07-31T10:37:50;20.40;99.90
33955;DHT22;20233;50.804;7.126;2023-07-31T10:40:40;20.50;99.90
33955;DHT22;20233;50.804;7.126;2023-07-31T10:43:08;20.50;99.90
33955;DHT22;20233;50.804;7.126;2023-07-31T10:45:39;20.60;99.90
33955;DHT22;20233;50.804;7.126;2023-07-31T10:48:15;20.70;99.90
33955;DHT22;20233;50.804;7.126;2023-07-31T10:50:49;20.80;99.90
33955;DHT22;20233;50.804;7.126;2023-07-31T10:53:26;20.80;99.90
33955;DHT22;20233;50.804;7.126;2023-07-31T10:55:53;20.90;99.90
33955;DHT22;20233;50.804;7.126;2023-07-31T10:58:24;20.90;99.90
33955;DHT22;20233;50.804;7.126;2023-07-31T11:00:55;20.90;99.90
33955;DHT22;20233;50.804;7.126;2023-07-31T11:03:26;20.80;99.90
33955;DHT22;20233;50.804;7.126;2023-07-31T11:08:26;20.90;99.90
33955;DHT22;20233;50.804;7.126;2023-07-31T11:13:30;20.90;99.90
33955;DHT22;20233;50.804;7.126;2023-07-31T11:15:56;20.90;99.90
33955;DHT22;20233;50.804;7.126;2023-07-31T11:18:23;20.90;99.90
33955;DHT22;20233;50.804;7.126;2023-07-31T11:20:49;20.90;99.90
33955;DHT22;20233;50.804;7.126;2023-07-31T11:23:17;20.90;99.90
33955;DHT22;20233;50.804;7.126;2023-07-31T11:25:43;20.90;99.90
33955;DHT22;20233;50.804;7.126;2023-07-31T11:28:12;21.00;99.90
33955;DHT22;20233;50.804;7.126;2023-07-31T11:30:43;21.00;99.90
33955;DHT22;20233;50.804;7.126;2023-07-31T11:33:11;21.00;99.90
33955;DHT22;20233;50.804;7.126;2023-07-31T11:35:48;21.00;99.90
33955;DHT22;20233;50.804;7.126;2023-07-31T11:38:31;21.00;99.90
33955;DHT22;20233;50.804;7.126;2023-07-31T11:41:00;20.90;99.90
33955;DHT22;20233;50.804;7.126;2023-07-31T11:43:31;20.90;99.90
33955;DHT22;20233;50.804;7.126;2023-07-31T11:45:59;20.90;99.90
33955;DHT22;20233;50.804;7.126;2023-07-31T11:48:33;20.90;99.90
33955;DHT22;20233;50.804;7.126;2023-07-31T11:51:01;21.10;99.90
33955;DHT22;20233;50.804;7.126;2023-07-31T11:53:46;21.10;99.90
33955;DHT22;20233;50.804;7.126;2023-07-31T11:56:15;21.30;99.90
33955;DHT22;20233;50.804;7.126;2023-07-31T11:58:49;21.60;99.90
33955;DHT22;20233;50.804;7.126;2023-07-31T12:01:19;21.70;99.90
33955;DHT22;20233;50.804;7.126;2023-07-31T12:03:47;22.00;99.90
33955;DHT22;20233;50.804;7.126;2023-07-31T12:06:13;22.20;99.90
33955;DHT22;20233;50.804;7.126;2023-07-31T12:08:39;22.30;99.90
33955;DHT22;20233;50.804;7.126;2023-07-31T12:11:07;22.50;99.90
33955;DHT22;20233;50.804;7.126;2023-07-31T12:13:40;22.50;99.90
33955;DHT22;20233;50.804;7.126;2023-07-31T12:16:07;22.60;99.90
33955;DHT22;20233;50.804;7.126;2023-07-31T12:18:35;22.60;99.90
33955;DHT22;20233;50.804;7.126;2023-07-31T12:21:04;22.50;99.90
33955;DHT22;20233;50.804;7.126;2023-07-31T12:23:32;22.60;99.90
33955;DHT22;20233;50.804;7.126;2023-07-31T12:26:17;22.60;99.90
33955;DHT22;20233;50.804;7.126;2023-07-31T12:31:14;22.60;99.90
33955;DHT22;20233;50.804;7.126;2023-07-31T12:33:42;22.50;99.90
33955;DHT22;20233;50.804;7.126;2023-07-31T12:36:19;22.40;99.90
33955;DHT22;20233;50.804;7.126;2023-07-31T12:38:46;22.40;99.90
33955;DHT22;20233;50.804;7.126;2023-07-31T12:41:12;22.30;99.90
33955;DHT22;20233;50.804;7.126;2023-07-31T12:43:40;22.30;99.90
33955;DHT22;20233;50.804;7.126;2023-07-31T12:46:07;22.30;99.90
33955;DHT22;20233;50.804;7.126;2023-07-31T12:48:36;22.20;99.90
33955;DHT22;20233;50.804;7.126;2023-07-31T12:51:03;22.10;99.90
33955;DHT22;20233;50.804;7.126;2023-07-31T12:53:30;22.20;99.90
33955;DHT22;20233;50.804;7.126;2023-07-31T12:55:56;22.10;99.90
33955;DHT22;20233;50.804;7.126;2023-07-31T12:58:26;22.10;99.90
33955;DHT22;20233;50.804;7.126;2023-07-31T13:00:52;22.10;99.90
33955;DHT22;20233;50.804;7.126;2023-07-31T13:03:18;22.10;99.90
33955;DHT22;20233;50.804;7.126;2023-07-31T13:05:45;22.20;99.90
33955;DHT22;20233;50.804;7.126;2023-07-31T13:08:11;22.30;99.90
33955;DHT22;20233;50.804;7.126;2023-07-31T13:10:37;22.40;99.90
33955;DHT22;20233;50.804;7.126;2023-07-31T13:13:04;22.50;99.90
33955;DHT22;20233;50.804;7.126;2023-07-31T13:15:30;22.70;99.90
33955;DHT22;20233;50.804;7.126;2023-07-31T13:17:56;22.80;99.90
33955;DHT22;20233;50.804;7.126;2023-07-31T13:20:22;22.70;99.90
33955;DHT22;20233;50.804;7.126;2023-07-31T13:22:48;22.60;99.90
33955;DHT22;20233;50.804;7.126;2023-07-31T13:25:14;22.60;99.90
33955;DHT22;20233;50.804;7.126;2023-07-31T13:27:41;22.60;99.90
33955;DHT22;20233;50.804;7.126;2023-07-31T13:30:09;22.60;99.90
33955;DHT22;20233;50.804;7.126;2023-07-31T13:32:35;22.60;99.90
33955;DHT22;20233;50.804;7.126;2023-07-31T13:35:06;22.60;99.90
33955;DHT22;20233;50.804;7.126;2023-07-31T13:37:32;22.60;99.90
33955;DHT22;20233;50.804;7.126;2023-07-31T13:39:58;22.60;99.90
33955;DHT22;20233;50.804;7.126;2023-07-31T13:42:25;22.70;99.90
33955;DHT22;20233;50.804;7.126;2023-07-31T13:44:54;22.80;99.90
33955;DHT22;20233;50.804;7.126;2023-07-31T13:47:21;22.80;99.90
33955;DHT22;20233;50.804;7.126;2023-07-31T13:49:48;22.90;99.90
33955;DHT22;20233;50.804;7.126;2023-07-31T13:52:15;22.90;99.90
33955;DHT22;20233;50.804;7.126;2023-07-31T13:54:41;22.90;99.90
33955;DHT22;20233;50.804;7.126;2023-07-31T13:57:08;22.90;99.90
33955;DHT22;20233;50.804;7.126;2023-07-31T13:59:35;23.00;99.90
33955;DHT22;20233;50.804;7.126;2023-07-31T14:02:02;23.10;99.90
33955;DHT22;20233;50.804;7.126;2023-07-31T14:04:29;23.30;99.90
33955;DHT22;20233;50.804;7.126;2023-07-31T14:06:57;23.30;99.90
33955;DHT22;20233;50.804;7.126;2023-07-31T14:09:23;23.30;99.90
33955;DHT22;20233;50.804;7.126;2023-07-31T14:11:49;23.30;99.90
33955;DHT22;20233;50.804;7.126;2023-07-31T14:14:16;23.20;99.90
33955;DHT22;20233;50.804;7.126;2023-07-31T14:16:43;23.30;99.90
33955;DHT22;20233;50.804;7.126;2023-07-31T14:19:10;23.30;99.90
33955;DHT22;20233;50.804;7.126;2023-07-31T14:21:36;23.20;99.90
33955;DHT22;20233;50.804;7.126;2023-07-31T14:24:03;23.20;99.90
33955;DHT22;20233;50.804;7.126;2023-07-31T14:26:30;23.10;99.90
33955;DHT22;20233;50.804;7.126;2023-07-31T14:28:56;22.90;99.90
33955;DHT22;20233;50.804;7.126;2023-07-31T14:31:23;22.90;99.90
33955;DHT22;20233;50.804;7.126;2023-07-31T14:33:52;22.80;99.90
33955;DHT22;20233;50.804;7.126;2023-07-31T14:36:19;22.80;99.90
33955;DHT22;20233;50.804;7.126;2023-07-31T14:38:45;22.60;99.90
33955;DHT22;20233;50.804;7.126;2023-07-31T14:41:11;22.70;99.90
33955;DHT22;20233;50.804;7.126;2023-07-31T14:43:37;22.60;99.90
33955;DHT22;20233;50.804;7.126;2023-07-31T14:46:05;22.50;99.90
33955;DHT22;20233;50.804;7.126;2023-07-31T14:48:32;22.50;99.90
33955;DHT22;20233;50.804;7.126;2023-07-31T14:50:59;22.40;99.90
33955;DHT22;20233;50.804;7.126;2023-07-31T14:53:26;22.40;99.90
33955;DHT22;20233;50.804;7.126;2023-07-31T14:55:52;22.30;99.90
33955;DHT22;20233;50.804;7.126;2023-07-31T14:58:19;22.30;99.90
33955;DHT22;20233;50.804;7.126;2023-07-31T15:00:44;22.30;99.90
33955;DHT22;20233;50.804;7.126;2023-07-31T15:03:11;22.20;99.90
33955;DHT22;20233;50.804;7.126;2023-07-31T15:05:37;22.20;99.90
33955;DHT22;20233;50.804;7.126;2023-07-31T15:08:03;22.10;99.90
33955;DHT22;20233;50.804;7.126;2023-07-31T15:10:30;22.10;99.90
33955;DHT22;20233;50.804;7.126;2023-07-31T15:12:56;22.20;99.90
33955;DHT22;20233;50.804;7.126;2023-07-31T15:15:22;22.20;99.90
33955;DHT22;20233;50.804;7.126;2023-07-31T15:17:49;22.10;99.90
33955;DHT22;20233;50.804;7.126;2023-07-31T15:20:15;22.10;99.90
33955;DHT22;20233;50.804;7.126;2023-07-31T15:22:42;21.80;99.90
33955;DHT22;20233;50.804;7.126;2023-07-31T15:25:08;21.90;99.90
33955;DHT22;20233;50.804;7.126;2023-07-31T15:27:34;21.90;99.90
33955;DHT22;20233;50.804;7.126;2023-07-31T15:30:01;22.00;99.90
33955;DHT22;20233;50.804;7.126;2023-07-31T15:32:27;22.00;99.90
33955;DHT22;20233;50.804;7.126;2023-07-31T15:34:53;22.00;99.90
33955;DHT22;20233;50.804;7.126;2023-07-31T15:37:19;22.00;99.90
33955;DHT22;20233;50.804;7.126;2023-07-31T15:39:45;22.00;99.90
33955;DHT22;20233;50.804;7.126;2023-07-31T15:42:11;22.00;99.90
33955;DHT22;20233;50.804;7.126;2023-07-31T15:44:37;22.00;99.90